sensor_id;sensor_type;location;lat;lon;timestamp;pressure;altitude;pressure_sealevel;temperature;humidity
13456;BME280;6800;50.940;6.940;2023-04-26T00:03:04;101123.03;;;15.64;36.03
13456;BME280;6800;50.940;6.940;2023-04-26T00:07:08;101123.16;;;15.37;36.63
13456;BME280;6800;50.940;6.940;2023-04-26T00:11:09;101130.28;;;15.35;36.39
13456;BME280;6800;50.940;6.940;2023-04-26T00:15:11;101126.13;;;15.45;36.26
13456;BME280;6800;50.940;6.940;2023-04-26T00:19:12;101130.81;;;15.40;36.75
13456;BME280;6800;50.940;6.940;2023-04-26T00:23:13;101129.53;;;15.33;36.38
13456;BME280;6800;50.940;6.940;2023-04-26T00:27:15;101134.06;;;15.31;36.68
13456;BME280;6800;50.940;6.940;2023-04-26T00:31:16;101139.13;;;15.34;36.38
13456;BME280;6800;50.940;6.940;2023-04-26T00:35:19;101127.78;;;15.21;36.38
13456;BME280;6800;50.940;6.940;2023-04-26T00:39:20;101124.72;;;15.15;36.83
13456;BME280;6800;50.940;6.940;2023-04-26T00:43:22;101124.59;;;15.04;37.35
13456;BME280;6800;50.940;6.940;2023-04-26T00:47:24;101119.56;;;15.01;37.39
13456;BME280;6800;50.940;6.940;2023-04-26T00:51:26;101113.88;;;14.94;37.28
13456;BME280;6800;50.940;6.940;2023-04-26T00:55:28;101114.28;;;14.75;38.19
13456;BME280;6800;50.940;6.940;2023-04-26T00:59:30;101114.31;;;14.88;38.14
13456;BME280;6800;50.940;6.940;2023-04-26T01:03:31;101117.56;;;14.79;38.08
13456;BME280;6800;50.940;6.940;2023-04-26T01:07:33;101115.78;;;14.79;37.82
13456;BME280;6800;50.940;6.940;2023-04-26T01:11:36;101118.72;;;14.88;37.82
13456;BME280;6800;50.940;6.940;2023-04-26T01:15:43;101120.94;;;14.94;37.86
13456;BME280;6800;50.940;6.940;2023-04-26T01:19:49;101129.66;;;14.94;37.62
13456;BME280;6800;50.940;6.940;2023-04-26T01:23:51;101129.66;;;14.81;38.08
13456;BME280;6800;50.940;6.940;2023-04-26T01:27:53;101123.13;;;14.87;38.11
13456;BME280;6800;50.940;6.940;2023-04-26T01:31:54;101131.66;;;14.91;38.27
13456;BME280;6800;50.940;6.940;2023-04-26T01:35:55;101124.59;;;14.78;38.28
13456;BME280;6800;50.940;6.940;2023-04-26T01:39:57;101126.00;;;14.97;38.04
13456;BME280;6800;50.940;6.940;2023-04-26T01:43:58;101128.25;;;14.76;38.32
13456;BME280;6800;50.940;6.940;2023-04-26T01:48:00;101127.56;;;14.87;38.34
13456;BME280;6800;50.940;6.940;2023-04-26T01:52:01;101126.72;;;14.86;38.41
13456;BME280;6800;50.940;6.940;2023-04-26T01:56:03;101116.72;;;14.91;38.03
13456;BME280;6800;50.940;6.940;2023-04-26T02:00:05;101116.81;;;14.77;38.41
13456;BME280;6800;50.940;6.940;2023-04-26T02:04:06;101120.38;;;14.76;38.01
13456;BME280;6800;50.940;6.940;2023-04-26T02:08:08;101119.31;;;14.66;38.74
13456;BME280;6800;50.940;6.940;2023-04-26T02:12:09;101118.44;;;14.53;39.09
13456;BME280;6800;50.940;6.940;2023-04-26T02:16:10;101118.38;;;14.67;38.42
13456;BME280;6800;50.940;6.940;2023-04-26T02:20:12;101110.28;;;14.70;38.69
13456;BME280;6800;50.940;6.940;2023-04-26T02:24:13;101116.38;;;14.70;38.81
13456;BME280;6800;50.940;6.940;2023-04-26T02:28:15;101120.56;;;14.60;39.21
13456;BME280;6800;50.940;6.940;2023-04-26T02:32:16;101117.72;;;14.63;39.23
13456;BME280;6800;50.940;6.940;2023-04-26T02:36:18;101125.41;;;14.66;39.05
13456;BME280;6800;50.940;6.940;2023-04-26T02:40:22;101115.75;;;14.67;39.45
13456;BME280;6800;50.940;6.940;2023-04-26T02:44:24;101118.44;;;14.53;39.29
13456;BME280;6800;50.940;6.940;2023-04-26T02:48:28;101104.19;;;14.57;38.83
13456;BME280;6800;50.940;6.940;2023-04-26T02:52:30;101113.41;;;14.50;39.07
13456;BME280;6800;50.940;6.940;2023-04-26T02:56:31;101116.34;;;14.58;39.53
13456;BME280;6800;50.940;6.940;2023-04-26T03:00:32;101112.75;;;14.46;39.55
13456;BME280;6800;50.940;6.940;2023-04-26T03:04:36;101111.50;;;14.52;39.32
13456;BME280;6800;50.940;6.940;2023-04-26T03:08:38;101110.34;;;14.43;40.04
13456;BME280;6800;50.940;6.940;2023-04-26T03:12:39;101107.50;;;14.46;39.84
13456;BME280;6800;50.940;6.940;2023-04-26T03:16:42;101110.44;;;14.42;39.90
13456;BME280;6800;50.940;6.940;2023-04-26T03:20:45;101098.25;;;14.41;39.59
13456;BME280;6800;50.940;6.940;2023-04-26T03:24:46;101107.06;;;14.40;40.00
13456;BME280;6800;50.940;6.940;2023-04-26T03:28:47;101105.19;;;14.42;39.81
13456;BME280;6800;50.940;6.940;2023-04-26T03:32:49;101098.75;;;14.19;39.55
13456;BME280;6800;50.940;6.940;2023-04-26T03:36:50;101099.91;;;14.29;39.61
13456;BME280;6800;50.940;6.940;2023-04-26T03:40:51;101095.69;;;14.13;39.91
13456;BME280;6800;50.940;6.940;2023-04-26T03:44:53;101096.88;;;14.21;40.25
13456;BME280;6800;50.940;6.940;2023-04-26T03:48:54;101104.69;;;14.08;40.16
13456;BME280;6800;50.940;6.940;2023-04-26T03:52:55;101104.81;;;13.80;41.55
13456;BME280;6800;50.940;6.940;2023-04-26T03:56:57;101103.38;;;14.16;40.22
13456;BME280;6800;50.940;6.940;2023-04-26T04:00:58;101096.84;;;14.08;40.15
13456;BME280;6800;50.940;6.940;2023-04-26T04:04:59;101106.25;;;13.98;40.26
13456;BME280;6800;50.940;6.940;2023-04-26T04:09:01;101106.44;;;13.95;40.30
13456;BME280;6800;50.940;6.940;2023-04-26T04:13:05;101111.88;;;13.92;40.62
13456;BME280;6800;50.940;6.940;2023-04-26T04:17:07;101109.56;;;13.88;40.80
13456;BME280;6800;50.940;6.940;2023-04-26T04:21:08;101111.78;;;13.94;40.45
13456;BME280;6800;50.940;6.940;2023-04-26T04:25:10;101120.50;;;13.94;40.51
13456;BME280;6800;50.940;6.940;2023-04-26T04:29:12;101120.69;;;13.91;40.45
13456;BME280;6800;50.940;6.940;2023-04-26T04:33:13;101122.44;;;14.05;40.69
13456;BME280;6800;50.940;6.940;2023-04-26T04:37:14;101128.53;;;14.05;40.46
13456;BME280;6800;50.940;6.940;2023-04-26T04:41:16;101130.13;;;14.08;40.58
13456;BME280;6800;50.940;6.940;2023-04-26T04:45:18;101124.50;;;14.14;40.83
13456;BME280;6800;50.940;6.940;2023-04-26T04:49:20;101130.28;;;14.33;40.52
13456;BME280;6800;50.940;6.940;2023-04-26T04:53:21;101128.16;;;14.38;39.76
13456;BME280;6800;50.940;6.940;2023-04-26T04:57:22;101136.09;;;14.51;40.34
13456;BME280;6800;50.940;6.940;2023-04-26T05:01:24;101140.00;;;14.58;40.02
13456;BME280;6800;50.940;6.940;2023-04-26T05:05:25;101142.50;;;14.59;40.17
13456;BME280;6800;50.940;6.940;2023-04-26T05:09:27;101152.00;;;14.74;39.80
13456;BME280;6800;50.940;6.940;2023-04-26T05:13:28;101149.63;;;14.84;39.86
13456;BME280;6800;50.940;6.940;2023-04-26T05:17:30;101149.22;;;14.90;39.74
13456;BME280;6800;50.940;6.940;2023-04-26T05:21:32;101153.53;;;15.04;39.44
13456;BME280;6800;50.940;6.940;2023-04-26T05:25:36;101158.47;;;15.08;39.31
13456;BME280;6800;50.940;6.940;2023-04-26T05:29:38;101160.28;;;15.20;39.44
13456;BME280;6800;50.940;6.940;2023-04-26T05:33:39;101172.78;;;15.42;39.36
13456;BME280;6800;50.940;6.940;2023-04-26T05:37:40;101166.50;;;15.57;38.68
13456;BME280;6800;50.940;6.940;2023-04-26T05:41:42;101165.56;;;15.58;38.05
13456;BME280;6800;50.940;6.940;2023-04-26T05:45:53;101169.03;;;15.71;37.08
13456;BME280;6800;50.940;6.940;2023-04-26T05:49:55;101175.22;;;16.19;36.64
13456;BME280;6800;50.940;6.940;2023-04-26T05:53:56;101181.00;;;15.88;36.69
13456;BME280;6800;50.940;6.940;2023-04-26T05:57:58;101175.47;;;16.03;36.73
13456;BME280;6800;50.940;6.940;2023-04-26T06:01:59;101167.63;;;16.74;35.93
13456;BME280;6800;50.940;6.940;2023-04-26T06:06:01;101175.91;;;17.27;35.18
13456;BME280;6800;50.940;6.940;2023-04-26T06:10:03;101173.50;;;17.12;35.11
13456;BME280;6800;50.940;6.940;2023-04-26T06:14:04;101177.19;;;17.56;33.49
13456;BME280;6800;50.940;6.940;2023-04-26T06:18:07;101171.81;;;18.22;33.42
13456;BME280;6800;50.940;6.940;2023-04-26T06:22:08;101167.59;;;18.53;32.34
13456;BME280;6800;50.940;6.940;2023-04-26T06:26:10;101176.41;;;18.95;32.30
13456;BME280;6800;50.940;6.940;2023-04-26T06:30:11;101177.63;;;19.83;30.11
13456;BME280;6800;50.940;6.940;2023-04-26T06:34:13;101183.25;;;20.96;29.04
13456;BME280;6800;50.940;6.940;2023-04-26T06:38:17;101189.09;;;21.74;27.21
13456;BME280;6800;50.940;6.940;2023-04-26T06:42:18;101186.69;;;21.81;26.95
13456;BME280;6800;50.940;6.940;2023-04-26T06:46:20;101185.72;;;20.40;28.54
13456;BME280;6800;50.940;6.940;2023-04-26T06:50:22;101185.06;;;21.15;27.81
13456;BME280;6800;50.940;6.940;2023-04-26T06:54:27;101183.75;;;21.74;26.88
13456;BME280;6800;50.940;6.940;2023-04-26T06:58:29;101183.44;;;20.16;28.64
13456;BME280;6800;50.940;6.940;2023-04-26T07:02:30;101170.06;;;22.06;26.74
13456;BME280;6800;50.940;6.940;2023-04-26T07:06:32;101173.19;;;20.80;28.29
13456;BME280;6800;50.940;6.940;2023-04-26T07:10:33;101169.94;;;22.70;25.72
13456;BME280;6800;50.940;6.940;2023-04-26T07:14:35;101169.66;;;22.99;25.27
13456;BME280;6800;50.940;6.940;2023-04-26T07:18:40;101174.41;;;22.25;25.67
13456;BME280;6800;50.940;6.940;2023-04-26T07:22:41;101175.63;;;22.13;26.02
13456;BME280;6800;50.940;6.940;2023-04-26T07:26:43;101178.72;;;22.08;25.90
13456;BME280;6800;50.940;6.940;2023-04-26T07:30:44;101175.81;;;20.99;27.20
13456;BME280;6800;50.940;6.940;2023-04-26T07:34:46;101173.03;;;21.20;26.61
13456;BME280;6800;50.940;6.940;2023-04-26T07:38:47;101174.97;;;21.37;25.46
13456;BME280;6800;50.940;6.940;2023-04-26T07:42:49;101177.97;;;21.89;24.69
13456;BME280;6800;50.940;6.940;2023-04-26T07:46:50;101182.47;;;21.78;24.73
13456;BME280;6800;50.940;6.940;2023-04-26T07:50:52;101178.75;;;20.49;26.67
13456;BME280;6800;50.940;6.940;2023-04-26T07:54:53;101185.63;;;21.18;25.58
13456;BME280;6800;50.940;6.940;2023-04-26T07:58:54;101178.34;;;21.01;25.90
13456;BME280;6800;50.940;6.940;2023-04-26T08:02:56;101175.44;;;21.14;25.50
13456;BME280;6800;50.940;6.940;2023-04-26T08:06:59;101176.88;;;22.36;24.28
13456;BME280;6800;50.940;6.940;2023-04-26T08:11:06;101165.50;;;22.96;23.14
13456;BME280;6800;50.940;6.940;2023-04-26T08:15:08;101166.13;;;23.16;23.62
13456;BME280;6800;50.940;6.940;2023-04-26T08:19:09;101167.66;;;23.78;23.06
13456;BME280;6800;50.940;6.940;2023-04-26T08:23:11;101172.47;;;22.97;23.27
13456;BME280;6800;50.940;6.940;2023-04-26T08:27:12;101166.41;;;22.52;24.14
13456;BME280;6800;50.940;6.940;2023-04-26T08:31:14;101170.16;;;21.87;24.98
13456;BME280;6800;50.940;6.940;2023-04-26T08:35:17;101169.78;;;19.51;28.13
13456;BME280;6800;50.940;6.940;2023-04-26T08:39:19;101172.88;;;21.31;25.15
13456;BME280;6800;50.940;6.940;2023-04-26T08:43:20;101163.47;;;22.73;23.96
13456;BME280;6800;50.940;6.940;2023-04-26T08:47:30;101175.50;;;22.32;24.04
13456;BME280;6800;50.940;6.940;2023-04-26T08:51:35;101163.38;;;23.25;22.99
13456;BME280;6800;50.940;6.940;2023-04-26T08:55:38;101160.47;;;23.70;23.09
13456;BME280;6800;50.940;6.940;2023-04-26T08:59:41;101162.47;;;23.17;23.48
13456;BME280;6800;50.940;6.940;2023-04-26T09:03:44;101165.44;;;23.65;22.97
13456;BME280;6800;50.940;6.940;2023-04-26T09:07:46;101177.88;;;22.35;23.98
13456;BME280;6800;50.940;6.940;2023-04-26T09:11:56;101187.00;;;21.68;24.71
13456;BME280;6800;50.940;6.940;2023-04-26T09:15:58;101177.72;;;21.45;25.36
13456;BME280;6800;50.940;6.940;2023-04-26T09:20:00;101174.53;;;21.32;24.97
13456;BME280;6800;50.940;6.940;2023-04-26T09:24:07;101168.72;;;22.37;24.19
13456;BME280;6800;50.940;6.940;2023-04-26T09:28:19;101171.66;;;21.62;23.23
13456;BME280;6800;50.940;6.940;2023-04-26T09:32:21;101153.78;;;24.00;21.96
13456;BME280;6800;50.940;6.940;2023-04-26T09:36:23;101158.75;;;23.10;21.69
13456;BME280;6800;50.940;6.940;2023-04-26T09:40:32;101149.47;;;24.07;20.92
13456;BME280;6800;50.940;6.940;2023-04-26T09:44:34;101143.06;;;22.64;22.29
13456;BME280;6800;50.940;6.940;2023-04-26T09:48:36;101140.72;;;23.04;22.48
13456;BME280;6800;50.940;6.940;2023-04-26T09:52:43;101139.41;;;22.47;22.88
13456;BME280;6800;50.940;6.940;2023-04-26T09:56:58;101136.13;;;22.53;22.80
13456;BME280;6800;50.940;6.940;2023-04-26T10:01:00;101135.75;;;22.48;23.32
13456;BME280;6800;50.940;6.940;2023-04-26T10:05:03;101137.69;;;23.24;22.82
13456;BME280;6800;50.940;6.940;2023-04-26T10:09:07;101142.56;;;21.61;23.52
13456;BME280;6800;50.940;6.940;2023-04-26T10:13:10;101137.19;;;22.25;22.96
13456;BME280;6800;50.940;6.940;2023-04-26T10:17:12;101130.38;;;23.26;21.78
13456;BME280;6800;50.940;6.940;2023-04-26T10:21:21;101123.88;;;24.38;21.09
13456;BME280;6800;50.940;6.940;2023-04-26T10:25:34;101138.63;;;25.53;19.86
13456;BME280;6800;50.940;6.940;2023-04-26T10:30:06;101120.00;;;25.29;19.76
13456;BME280;6800;50.940;6.940;2023-04-26T10:34:18;101114.06;;;28.82;17.30
13456;BME280;6800;50.940;6.940;2023-04-26T10:38:20;101110.66;;;30.04;15.58
13456;BME280;6800;50.940;6.940;2023-04-26T10:42:24;101129.03;;;26.14;18.16
13456;BME280;6800;50.940;6.940;2023-04-26T10:46:38;101107.44;;;26.15;18.09
13456;BME280;6800;50.940;6.940;2023-04-26T10:55:03;101108.25;;;27.65;16.98
13456;BME280;6800;50.940;6.940;2023-04-26T10:59:07;101105.41;;;28.02;16.58
13456;BME280;6800;50.940;6.940;2023-04-26T11:03:29;101106.69;;;28.06;16.57
13456;BME280;6800;50.940;6.940;2023-04-26T11:07:37;101108.50;;;25.98;18.26
13456;BME280;6800;50.940;6.940;2023-04-26T11:11:50;101112.34;;;25.10;18.90
13456;BME280;6800;50.940;6.940;2023-04-26T11:15:53;101105.09;;;25.51;19.02
13456;BME280;6800;50.940;6.940;2023-04-26T11:20:04;101088.50;;;26.62;17.76
13456;BME280;6800;50.940;6.940;2023-04-26T11:24:09;101089.75;;;25.29;18.63
13456;BME280;6800;50.940;6.940;2023-04-26T11:28:10;101089.34;;;27.00;16.76
13456;BME280;6800;50.940;6.940;2023-04-26T11:32:11;101078.06;;;27.77;16.45
13456;BME280;6800;50.940;6.940;2023-04-26T11:36:14;101076.16;;;28.07;15.33
13456;BME280;6800;50.940;6.940;2023-04-26T11:40:16;101077.75;;;26.85;15.90
13456;BME280;6800;50.940;6.940;2023-04-26T11:44:20;101075.78;;;27.16;16.32
13456;BME280;6800;50.940;6.940;2023-04-26T11:48:21;101079.72;;;26.68;17.43
13456;BME280;6800;50.940;6.940;2023-04-26T11:52:23;101063.56;;;27.43;15.98
13456;BME280;6800;50.940;6.940;2023-04-26T11:56:24;101063.28;;;27.08;16.85
13456;BME280;6800;50.940;6.940;2023-04-26T12:00:26;101070.97;;;26.97;16.91
13456;BME280;6800;50.940;6.940;2023-04-26T12:04:29;101071.19;;;25.74;18.08
13456;BME280;6800;50.940;6.940;2023-04-26T12:08:32;101079.75;;;24.02;19.59
13456;BME280;6800;50.940;6.940;2023-04-26T12:12:33;101077.63;;;24.94;18.91
13456;BME280;6800;50.940;6.940;2023-04-26T12:16:35;101074.13;;;24.37;19.66
13456;BME280;6800;50.940;6.940;2023-04-26T12:20:40;101082.41;;;23.26;20.47
13456;BME280;6800;50.940;6.940;2023-04-26T12:24:42;101072.13;;;24.31;19.69
13456;BME280;6800;50.940;6.940;2023-04-26T12:28:44;101069.09;;;25.62;19.06
13456;BME280;6800;50.940;6.940;2023-04-26T12:32:46;101063.09;;;24.64;18.97
13456;BME280;6800;50.940;6.940;2023-04-26T12:36:47;101073.63;;;24.98;19.14
13456;BME280;6800;50.940;6.940;2023-04-26T12:40:49;101073.28;;;25.56;18.84
13456;BME280;6800;50.940;6.940;2023-04-26T12:44:51;101074.41;;;25.07;18.47
13456;BME280;6800;50.940;6.940;2023-04-26T12:48:53;101080.97;;;24.48;19.13
13456;BME280;6800;50.940;6.940;2023-04-26T12:52:55;101069.13;;;24.66;18.79
13456;BME280;6800;50.940;6.940;2023-04-26T12:56:56;101055.44;;;24.61;19.66
13456;BME280;6800;50.940;6.940;2023-04-26T13:00:58;101067.09;;;25.09;18.58
13456;BME280;6800;50.940;6.940;2023-04-26T13:05:00;101057.72;;;25.13;18.54
13456;BME280;6800;50.940;6.940;2023-04-26T13:09:04;101057.66;;;23.68;19.91
13456;BME280;6800;50.940;6.940;2023-04-26T13:13:09;101050.97;;;23.56;19.97
13456;BME280;6800;50.940;6.940;2023-04-26T13:17:11;101047.09;;;23.50;20.46
13456;BME280;6800;50.940;6.940;2023-04-26T13:21:12;101053.00;;;23.78;20.07
13456;BME280;6800;50.940;6.940;2023-04-26T13:25:13;101055.88;;;23.09;20.71
13456;BME280;6800;50.940;6.940;2023-04-26T13:29:15;101050.03;;;23.97;19.59
13456;BME280;6800;50.940;6.940;2023-04-26T13:33:20;101054.44;;;24.54;19.01
13456;BME280;6800;50.940;6.940;2023-04-26T13:37:28;101059.88;;;23.96;19.29
13456;BME280;6800;50.940;6.940;2023-04-26T13:41:30;101063.06;;;23.50;19.99
13456;BME280;6800;50.940;6.940;2023-04-26T13:45:33;101051.63;;;22.90;19.84
13456;BME280;6800;50.940;6.940;2023-04-26T13:49:37;101053.47;;;22.98;19.94
13456;BME280;6800;50.940;6.940;2023-04-26T13:53:39;101052.31;;;23.26;20.30
13456;BME280;6800;50.940;6.940;2023-04-26T13:57:41;101047.09;;;22.91;20.48
13456;BME280;6800;50.940;6.940;2023-04-26T14:01:43;101042.75;;;23.15;20.16
13456;BME280;6800;50.940;6.940;2023-04-26T14:05:44;101044.91;;;21.45;22.43
13456;BME280;6800;50.940;6.940;2023-04-26T14:09:46;101030.78;;;21.90;21.04
13456;BME280;6800;50.940;6.940;2023-04-26T14:13:47;101038.22;;;22.82;20.23
13456;BME280;6800;50.940;6.940;2023-04-26T14:17:49;101037.38;;;23.07;20.19
13456;BME280;6800;50.940;6.940;2023-04-26T14:21:50;101035.38;;;23.35;19.18
13456;BME280;6800;50.940;6.940;2023-04-26T14:25:54;101034.09;;;22.01;21.54
13456;BME280;6800;50.940;6.940;2023-04-26T14:29:55;101034.22;;;23.12;21.11
13456;BME280;6800;50.940;6.940;2023-04-26T14:33:57;101041.53;;;19.04;25.58
13456;BME280;6800;50.940;6.940;2023-04-26T14:37:58;101042.91;;;20.74;24.21
13456;BME280;6800;50.940;6.940;2023-04-26T14:42:00;101043.88;;;18.25;27.08
13456;BME280;6800;50.940;6.940;2023-04-26T14:46:02;101035.38;;;21.43;23.06
13456;BME280;6800;50.940;6.940;2023-04-26T14:50:04;101042.84;;;18.68;25.60
13456;BME280;6800;50.940;6.940;2023-04-26T14:54:07;101036.53;;;20.29;24.54
13456;BME280;6800;50.940;6.940;2023-04-26T14:58:08;101039.22;;;21.04;23.53
13456;BME280;6800;50.940;6.940;2023-04-26T15:02:09;101021.47;;;22.03;22.94
13456;BME280;6800;50.940;6.940;2023-04-26T15:06:11;101021.13;;;19.75;24.75
13456;BME280;6800;50.940;6.940;2023-04-26T15:10:12;101023.53;;;20.26;24.39
13456;BME280;6800;50.940;6.940;2023-04-26T15:14:14;101016.91;;;21.24;23.52
13456;BME280;6800;50.940;6.940;2023-04-26T15:18:15;101007.16;;;22.04;20.77
13456;BME280;6800;50.940;6.940;2023-04-26T15:22:17;101018.28;;;19.17;24.68
13456;BME280;6800;50.940;6.940;2023-04-26T15:26:18;101007.69;;;21.45;22.67
13456;BME280;6800;50.940;6.940;2023-04-26T15:30:20;101010.00;;;22.03;21.50
13456;BME280;6800;50.940;6.940;2023-04-26T15:34:21;101005.19;;;22.06;21.26
13456;BME280;6800;50.940;6.940;2023-04-26T15:38:25;100999.00;;;21.70;21.87
13456;BME280;6800;50.940;6.940;2023-04-26T15:42:26;101008.78;;;21.52;22.35
13456;BME280;6800;50.940;6.940;2023-04-26T15:46:28;101001.47;;;22.17;21.10
13456;BME280;6800;50.940;6.940;2023-04-26T15:50:29;100999.75;;;21.81;22.69
13456;BME280;6800;50.940;6.940;2023-04-26T15:54:31;101003.59;;;21.33;22.79
13456;BME280;6800;50.940;6.940;2023-04-26T15:58:33;101000.94;;;20.31;24.19
13456;BME280;6800;50.940;6.940;2023-04-26T16:02:40;101011.78;;;19.90;24.65
13456;BME280;6800;50.940;6.940;2023-04-26T16:06:45;101008.84;;;21.06;23.50
13456;BME280;6800;50.940;6.940;2023-04-26T16:10:46;101012.06;;;19.28;25.17
13456;BME280;6800;50.940;6.940;2023-04-26T16:14:47;101024.56;;;20.90;23.35
13456;BME280;6800;50.940;6.940;2023-04-26T16:18:51;101008.44;;;21.38;22.29
13456;BME280;6800;50.940;6.940;2023-04-26T16:22:52;101009.34;;;21.29;22.71
13456;BME280;6800;50.940;6.940;2023-04-26T16:26:54;101011.19;;;20.72;22.92
13456;BME280;6800;50.940;6.940;2023-04-26T16:30:55;101004.16;;;21.27;22.82
13456;BME280;6800;50.940;6.940;2023-04-26T16:34:56;101009.19;;;21.30;22.41
13456;BME280;6800;50.940;6.940;2023-04-26T16:38:58;101000.91;;;21.06;23.03
13456;BME280;6800;50.940;6.940;2023-04-26T16:42:59;101011.81;;;20.93;22.49
13456;BME280;6800;50.940;6.940;2023-04-26T16:47:01;101001.13;;;21.40;22.10
13456;BME280;6800;50.940;6.940;2023-04-26T16:51:04;100991.28;;;21.05;22.56
13456;BME280;6800;50.940;6.940;2023-04-26T16:55:08;100995.50;;;21.52;21.90
13456;BME280;6800;50.940;6.940;2023-04-26T16:59:10;101012.19;;;18.87;24.44
13456;BME280;6800;50.940;6.940;2023-04-26T17:03:12;101000.53;;;21.28;22.18
13456;BME280;6800;50.940;6.940;2023-04-26T17:07:14;101008.06;;;21.50;21.58
13456;BME280;6800;50.940;6.940;2023-04-26T17:11:16;101009.84;;;20.95;22.14
13456;BME280;6800;50.940;6.940;2023-04-26T17:15:18;101013.50;;;20.48;22.71
13456;BME280;6800;50.940;6.940;2023-04-26T17:19:19;101014.91;;;20.33;22.98
13456;BME280;6800;50.940;6.940;2023-04-26T17:23:21;101013.59;;;19.89;23.69
13456;BME280;6800;50.940;6.940;2023-04-26T17:27:24;101017.44;;;20.81;22.53
13456;BME280;6800;50.940;6.940;2023-04-26T17:31:26;101018.19;;;20.64;22.91
13456;BME280;6800;50.940;6.940;2023-04-26T17:35:28;101021.78;;;20.72;22.77
13456;BME280;6800;50.940;6.940;2023-04-26T17:39:30;101023.50;;;20.64;22.98
13456;BME280;6800;50.940;6.940;2023-04-26T17:43:31;101023.78;;;20.61;22.63
13456;BME280;6800;50.940;6.940;2023-04-26T17:47:32;101026.03;;;20.65;22.92
13456;BME280;6800;50.940;6.940;2023-04-26T17:51:34;101028.84;;;20.26;23.39
13456;BME280;6800;50.940;6.940;2023-04-26T17:55:35;101022.69;;;20.15;23.87
13456;BME280;6800;50.940;6.940;2023-04-26T17:59:37;101022.63;;;19.18;25.37
13456;BME280;6800;50.940;6.940;2023-04-26T18:03:38;101026.78;;;20.29;23.97
13456;BME280;6800;50.940;6.940;2023-04-26T18:07:41;101026.41;;;19.75;24.94
13456;BME280;6800;50.940;6.940;2023-04-26T18:11:43;101035.91;;;19.68;24.95
13456;BME280;6800;50.940;6.940;2023-04-26T18:15:47;101036.34;;;19.03;25.74
13456;BME280;6800;50.940;6.940;2023-04-26T18:19:49;101034.72;;;18.60;26.34
13456;BME280;6800;50.940;6.940;2023-04-26T18:23:51;101033.66;;;19.63;25.17
13456;BME280;6800;50.940;6.940;2023-04-26T18:27:52;101044.31;;;19.82;25.39
13456;BME280;6800;50.940;6.940;2023-04-26T18:31:57;101039.00;;;20.11;24.73
13456;BME280;6800;50.940;6.940;2023-04-26T18:35:58;101042.50;;;19.83;25.19
13456;BME280;6800;50.940;6.940;2023-04-26T18:40:00;101047.59;;;19.65;25.49
13456;BME280;6800;50.940;6.940;2023-04-26T18:44:01;101053.00;;;19.24;26.27
13456;BME280;6800;50.940;6.940;2023-04-26T18:48:03;101064.81;;;18.90;26.41
13456;BME280;6800;50.940;6.940;2023-04-26T18:52:04;101063.34;;;18.97;26.81
13456;BME280;6800;50.940;6.940;2023-04-26T18:56:08;101064.28;;;19.16;26.87
13456;BME280;6800;50.940;6.940;2023-04-26T19:00:10;101067.09;;;19.24;26.41
13456;BME280;6800;50.940;6.940;2023-04-26T19:04:12;101073.75;;;18.89;27.10
13456;BME280;6800;50.940;6.940;2023-04-26T19:08:14;101078.66;;;19.54;25.86
13456;BME280;6800;50.940;6.940;2023-04-26T19:12:16;101083.72;;;19.06;26.69
13456;BME280;6800;50.940;6.940;2023-04-26T19:16:17;101081.50;;;19.71;26.11
13456;BME280;6800;50.940;6.940;2023-04-26T19:20:19;101091.44;;;19.88;25.88
13456;BME280;6800;50.940;6.940;2023-04-26T19:24:23;101096.06;;;19.47;25.95
13456;BME280;6800;50.940;6.940;2023-04-26T19:28:25;101104.19;;;19.04;26.74
13456;BME280;6800;50.940;6.940;2023-04-26T19:32:26;101094.59;;;19.63;26.09
13456;BME280;6800;50.940;6.940;2023-04-26T19:36:28;101093.25;;;19.78;25.47
13456;BME280;6800;50.940;6.940;2023-04-26T19:40:29;101092.19;;;19.60;26.20
13456;BME280;6800;50.940;6.940;2023-04-26T19:44:31;101096.47;;;18.91;27.04
13456;BME280;6800;50.940;6.940;2023-04-26T19:48:32;101103.59;;;19.21;26.70
13456;BME280;6800;50.940;6.940;2023-04-26T19:52:33;101104.13;;;18.74;27.70
13456;BME280;6800;50.940;6.940;2023-04-26T19:56:35;101116.31;;;18.65;27.33
13456;BME280;6800;50.940;6.940;2023-04-26T20:00:36;101114.00;;;18.72;27.18
13456;BME280;6800;50.940;6.940;2023-04-26T20:04:40;101120.44;;;18.99;27.10
13456;BME280;6800;50.940;6.940;2023-04-26T20:08:41;101122.88;;;18.39;27.88
13456;BME280;6800;50.940;6.940;2023-04-26T20:12:43;101130.53;;;18.85;27.66
13456;BME280;6800;50.940;6.940;2023-04-26T20:16:44;101133.38;;;19.34;26.78
13456;BME280;6800;50.940;6.940;2023-04-26T20:20:46;101129.28;;;18.68;27.95
13456;BME280;6800;50.940;6.940;2023-04-26T20:24:48;101151.13;;;17.62;29.63
13456;BME280;6800;50.940;6.940;2023-04-26T20:28:49;101127.34;;;18.38;28.54
13456;BME280;6800;50.940;6.940;2023-04-26T20:32:51;101125.19;;;18.32;29.47
13456;BME280;6800;50.940;6.940;2023-04-26T20:36:52;101139.81;;;18.05;28.68
13456;BME280;6800;50.940;6.940;2023-04-26T20:40:54;101129.13;;;19.11;27.76
13456;BME280;6800;50.940;6.940;2023-04-26T20:44:55;101133.59;;;18.48;28.46
13456;BME280;6800;50.940;6.940;2023-04-26T20:48:58;101131.22;;;18.66;28.15
13456;BME280;6800;50.940;6.940;2023-04-26T20:53:00;101134.41;;;17.95;28.74
13456;BME280;6800;50.940;6.940;2023-04-26T20:57:01;101134.97;;;17.56;29.46
13456;BME280;6800;50.940;6.940;2023-04-26T21:01:04;101124.63;;;18.60;28.12
13456;BME280;6800;50.940;6.940;2023-04-26T21:05:08;101132.78;;;17.83;28.90
13456;BME280;6800;50.940;6.940;2023-04-26T21:09:10;101140.81;;;17.70;29.01
13456;BME280;6800;50.940;6.940;2023-04-26T21:13:11;101128.00;;;19.04;26.91
13456;BME280;6800;50.940;6.940;2023-04-26T21:17:14;101124.72;;;18.91;27.56
13456;BME280;6800;50.940;6.940;2023-04-26T21:21:16;101132.16;;;18.33;28.07
13456;BME280;6800;50.940;6.940;2023-04-26T21:25:17;101131.59;;;19.23;27.25
13456;BME280;6800;50.940;6.940;2023-04-26T21:29:20;101138.28;;;18.77;27.86